createdAt,value
2017-10-16T00:00:30.246Z,10.40
2017-10-16T00:05:32.124Z,10.30
2017-10-16T00:10:34.001Z,10.30
2017-10-16T00:15:35.880Z,10.30
2017-10-16T00:20:37.971Z,10.40
2017-10-16T00:25:39.942Z,10.30
2017-10-16T00:30:41.819Z,10.30
2017-10-16T00:35:43.696Z,10.30
2017-10-16T00:40:45.581Z,10.20
2017-10-16T00:45:50.320Z,10.20
2017-10-16T00:50:52.196Z,10.10
2017-10-16T00:55:54.279Z,10.20
2017-10-16T01:00:56.361Z,10.10
2017-10-16T01:05:58.239Z,10.10
2017-10-16T01:11:00.321Z,10.20
2017-10-16T01:16:03.530Z,10.10
2017-10-16T01:21:05.613Z,10.10
2017-10-16T01:26:07.694Z,10.00
2017-10-16T01:31:09.880Z,10.00
2017-10-16T01:36:12.986Z,10.10
2017-10-16T01:41:15.068Z,10.60
2017-10-16T01:46:17.965Z,10.50
2017-10-16T01:51:20.974Z,10.70
2017-10-16T01:56:24.160Z,10.70
2017-10-16T02:01:26.367Z,10.60
2017-10-16T02:06:28.450Z,10.50
2017-10-16T02:11:30.327Z,10.30
2017-10-16T02:16:32.208Z,10.30
2017-10-16T02:21:34.187Z,10.30
2017-10-16T02:26:36.062Z,10.30
2017-10-16T02:31:38.964Z,10.10
2017-10-16T02:36:44.852Z,10.20
2017-10-16T02:41:49.447Z,10.10
2017-10-16T02:46:53.260Z,10.10
2017-10-16T02:51:58.973Z,10.00
2017-10-16T02:57:01.772Z,10.00
2017-10-16T03:02:06.018Z,9.80
2017-10-16T03:07:08.681Z,9.80
2017-10-16T03:12:11.341Z,9.90
2017-10-16T03:17:13.810Z,9.80
2017-10-16T03:22:16.328Z,9.70
2017-10-16T03:27:19.036Z,9.60
2017-10-16T03:32:21.053Z,9.60
2017-10-16T03:37:22.932Z,9.50
2017-10-16T03:42:24.911Z,9.40
2017-10-16T03:47:26.996Z,9.30
2017-10-16T03:52:29.076Z,9.30
2017-10-16T03:57:30.955Z,9.40
2017-10-16T04:02:38.360Z,9.50
2017-10-16T04:07:40.444Z,9.50
2017-10-16T04:12:42.320Z,9.50
2017-10-16T04:17:44.403Z,9.50
2017-10-16T04:22:46.260Z,9.50
2017-10-16T04:27:48.162Z,9.50
2017-10-16T04:32:50.036Z,9.40
2017-10-16T04:37:51.914Z,9.30
2017-10-16T04:42:54.406Z,9.40
2017-10-16T04:47:56.282Z,9.30
2017-10-16T04:52:58.160Z,9.20
2017-10-16T04:58:00.038Z,9.20
2017-10-16T05:03:01.918Z,9.30
2017-10-16T05:08:03.794Z,9.20
2017-10-16T05:13:05.671Z,9.20
2017-10-16T05:18:07.555Z,9.20
2017-10-16T16:55:20.788Z,18.80
2017-10-16T17:00:21.842Z,18.80
2017-10-16T17:05:22.897Z,18.70
2017-10-16T17:10:24.981Z,18.60
2017-10-16T17:15:26.030Z,18.40
2017-10-16T17:20:27.098Z,18.40
2017-10-16T17:25:28.168Z,18.20
2017-10-16T17:30:29.222Z,18.10
2017-10-16T17:35:30.282Z,18.00
2017-10-16T17:40:31.357Z,18.00
2017-10-16T17:45:32.492Z,17.80
2017-10-16T17:50:38.558Z,17.60
2017-10-16T17:55:40.645Z,17.40
2017-10-16T18:00:41.709Z,17.20
2017-10-16T18:05:42.765Z,17.00
2017-10-16T18:10:45.881Z,16.90
2017-10-16T18:15:46.924Z,16.90
2017-10-16T18:20:48.007Z,16.90
2017-10-16T18:25:49.151Z,16.70
2017-10-16T18:30:50.229Z,16.70
2017-10-16T18:35:52.311Z,16.60
2017-10-16T18:40:53.355Z,16.50
2017-10-16T18:45:55.422Z,16.30
2017-10-16T18:50:58.551Z,16.20
2017-10-16T18:56:00.642Z,16.10
2017-10-16T19:01:01.703Z,16.00
2017-10-16T19:06:02.745Z,15.90
2017-10-16T19:11:05.766Z,15.70
2017-10-16T19:16:06.848Z,15.60
2017-10-16T19:21:08.923Z,15.50
2017-10-16T19:26:09.929Z,15.00
2017-10-16T19:31:13.065Z,14.80
2017-10-16T19:36:14.116Z,15.00
2017-10-16T19:41:15.162Z,14.50
2017-10-16T19:46:17.271Z,14.30
2017-10-16T19:51:19.326Z,14.10
2017-10-16T19:56:20.401Z,13.80
2017-10-16T20:01:22.486Z,14.10
2017-10-16T20:06:23.642Z,14.00
2017-10-16T20:11:24.692Z,14.00
2017-10-16T20:16:26.785Z,14.00
2017-10-16T20:21:27.929Z,13.90
2017-10-16T20:26:29.002Z,13.90
2017-10-16T20:31:31.186Z,13.60
2017-10-16T20:36:34.189Z,13.40
2017-10-16T20:41:35.242Z,13.20
2017-10-16T20:46:38.353Z,13.20
2017-10-16T20:51:39.454Z,13.20
2017-10-16T20:56:41.493Z,13.20
2017-10-16T21:01:42.568Z,13.20
2017-10-16T21:06:43.727Z,13.10
2017-10-16T21:11:44.774Z,13.00
2017-10-16T21:16:46.845Z,13.10
2017-10-16T21:21:48.954Z,13.00
2017-10-16T21:26:49.984Z,13.00
2017-10-16T21:31:51.052Z,13.10
2017-10-16T21:36:53.130Z,13.10
2017-10-16T21:41:54.297Z,13.10
2017-10-16T21:46:55.358Z,13.00
2017-10-16T21:52:08.499Z,13.00
2017-10-16T21:57:09.522Z,13.00
2017-10-16T22:02:10.613Z,12.90
2017-10-16T22:07:12.683Z,12.90
2017-10-16T22:12:13.746Z,12.90
2017-10-16T22:17:14.809Z,13.00
2017-10-16T22:22:15.861Z,12.90
2017-10-16T22:27:18.670Z,12.90
2017-10-16T22:32:19.722Z,12.80
2017-10-16T22:37:20.791Z,12.90
2017-10-16T22:42:21.835Z,12.90
2017-10-16T22:47:29.676Z,13.00
2017-10-16T22:52:30.698Z,12.90
2017-10-16T22:57:32.486Z,12.80
2017-10-16T23:02:33.545Z,12.80
2017-10-16T23:07:34.713Z,12.70
2017-10-16T23:12:36.777Z,12.40
2017-10-16T23:17:37.853Z,12.20
2017-10-16T23:22:38.920Z,12.10
2017-10-16T23:27:41.153Z,12.10
2017-10-16T23:32:42.273Z,12.00
2017-10-16T23:37:44.343Z,12.00
2017-10-16T23:42:45.390Z,11.90
2017-10-16T23:47:47.537Z,11.90
2017-10-16T23:52:49.541Z,11.70
2017-10-16T23:57:50.625Z,11.60
